Tiempo atmosférico en la estación meteorológica de Jávea/ Xàbia, Alacant/Alicante (15 m.)



Fecha
DESCASC
Temp. máxima en grados centígrados (hora)
DESCASC
Temp. mínima en grados centígrados (hora)
DESCASC
Temp. media en grados centígrados
DESCASC
Racha de viento máxima en m/sg (hora)
DESCASC
Velocidad máxima media en intervalos de 10 minutos(hora)
DESCASC
Precipitaciones diarias en mm
DESCASC
Precipitaciones de 00:00 a 06:00 en mm
DESCASC
Precipitaciones de 06:00 a 12:00 en mm
DESCASC
Precipitaciones de 12:00 a 18:00 en mm
DESCASC
Precipitaciones de 18:00 a 24:00 en mm
DESCASC
22-01-2020 16.4 (13:30) 6.4 (03:50) 11.4 12.22 (16:30) 5.83 (16:30) 0.2 0 0.2 0 0
21-01-2020 17 (15:00) 8.1 (23:40) 12.6 15 (09:00) 8.61 (02:40) 6.2 3 3.2 0 0
20-01-2020 13.9 (12:20) 8.2 (03:10) 11 26.11 (09:10) 15 (09:50) 64.4 29.4 12.6 10 12.4
19-01-2020 13.5 (06:30) 8.4 (00:00) 10.9 25.83 (21:30) 15 (17:20) 18.6 0 4.6 1 13
18-01-2020 18.6 (16:10) 7.2 (00:00) 12.9 8.06 (19:20) 3.89 (19:10) 0 0 0 0 0
17-01-2020 21.9 (14:50) 2.9 (00:00) 12.4 10.56 (16:20) 6.67 (16:20) 0 0 0 0 0
16-01-2020 19.3 (16:00) 4.1 (00:00) 11.7 5.56 (16:30) 3.33 (16:30) 0 0 0 0 0
15-01-2020 20.2 (13:50) 3.1 (00:00) 11.7 5.56 (17:30) 3.61 (09:00) 0 0 0 0 0
14-01-2020 17.7 (16:20) 0.6 (00:00) 9.2 6.11 (20:10) 3.89 (21:30) 0 0 0 0 0
13-01-2020 16.4 (14:10) -0.4 (00:00) 8 8.61 (13:10) 4.72 (14:20) 0 0 0 0 0
12-01-2020 15.2 (14:50) 1.2 (00:00) 8.2 8.06 (16:10) 5.28 (16:30) 0 0 0 0 0
11-01-2020 15 (15:50) 4.7 (00:00) 9.8 10.28 (00:20) 5.83 (06:30) 0 0 0 0 0
10-01-2020 15.2 (15:20) 5.3 (00:00) 10.3 18.33 (19:00) 8.89 (19:10) 12.8 0 0 0.2 12.6
09-01-2020 17.1 (14:00) 4.8 (00:00) 11 7.78 (23:59) 3.33 (23:20) 0 0 0 0 0
08-01-2020 16.2 (12:10) 2.7 (00:00) 9.5 9.72 (16:20) 5.83 (15:30) 0 0 0 0 0
07-01-2020 17.3 (15:20) 3.6 (00:00) 10.4 6.39 (16:10) 3.33 (16:10) 0 0 0 0 0
06-01-2020 16.6 (13:30) 3.3 (00:00) 10 6.67 (10:40) 4.17 (10:10) 0 0 0 0 0
05-01-2020 18.2 (13:00) 2.2 (00:00) 10.2 5 (19:40) 3.33 (01:20) 0 0 0 0 0
04-01-2020 17 (13:50) 4 (00:00) 10.5 5.83 (14:10) 3.61 (14:10) 0 0 0 0 0
03-01-2020 16.7 (16:10) 2.4 (00:00) 9.6 4.72 (05:30) 2.78 (01:30) 0 0 0 0 0
02-01-2020 16.6 (13:50) 4.3 (00:00) 10.5 9.44 (15:10) 5.28 (15:00) 0 0 0 0 0
01-01-2020 15.8 (13:30) 2.9 (00:00) 9.4 4.44 (04:30) 3.06 (05:00) 0.2 0.2 0 0 0
31-12-2019 15.8 (15:30) 4.3 (00:00) 10.1 5.28 (13:00) 3.33 (02:10) 0 0 0 0 0
30-12-2019 15.1 (13:20) 6.1 (00:00) 10.6 8.06 (11:20) 5.28 (11:20) 0 0 0 0 0
29-12-2019 16 (13:20) 5 (00:00) 10.5 6.11 (13:50) 3.89 (13:50) 0 0 0 0 0
28-12-2019 17.6 (15:10) 7.4 (00:00) 12.5 5.28 (15:10) 3.06 (06:40) 0.2 0.2 0 0 0
27-12-2019 20 (14:20) 5.4 (00:00) 12.7 6.39 (17:10) 3.33 (15:10) 0 0 0 0 0
26-12-2019 22.6 (12:30) 6 (00:00) 14.3 4.72 (17:40) 3.06 (06:30) 0 0 0 0 0
25-12-2019 21.1 (12:40) 6.9 (00:00) 14 5.28 (20:40) 3.06 (00:30) 0 0 0 0 0

Gráficas

Temp. máximas Temp. mínimas Temp. medias Precipitaciones Rachas de viento máximas Velocidades máximas media en intervalos de 10 minutos

Datos horarios

Fecha y hora oficial Temperatura (ºC) Velocidad del viento (km/h) Dirección del viento Racha (km/h) Dirección de racha Precipitación (mm) Presión (hPa) Tendencia (hPa) Humedad (%)
2020-01-23 23:00:00 8.3 8 Oeste 13 Oeste 0 1021.4 0.8 93
2020-01-23 22:00:00 8.8 7 Oeste 12 Sudoeste 0 1021.2 1.1 94
2020-01-23 21:00:00 8.4 7 Sudoeste 10 Sudoeste 0 1020.9 1.3 91
2020-01-23 20:00:00 9.9 6 Oeste 10 Oeste 0 1020.6 1.3 89
2020-01-23 19:00:00 11.7 0 Calma 6 Nordeste 0 1020.1 0.9 82
2020-01-23 18:00:00 13.7 3 Nordeste 10 Nordeste 0 1019.6 0.3 78
2020-01-23 17:00:00 14.4 6 Nordeste 12 Nordeste 0 1019.3 -0.6 74
2020-01-23 16:00:00 15.2 5 Nordeste 13 Nordeste 0 1019.2 -1.5 70
2020-01-23 15:00:00 15.2 5 Este 14 Este 0 1019.3 -1.7 68
2020-01-23 14:00:00 14.9 5 Este 12 Nordeste 0 1019.9 -0.6 69
2020-01-23 13:00:00 14.5 6 Nordeste 14 Nordeste 0 1020.7 0.9 73
2020-01-23 12:00:00 13.4 4 Nordeste 9 Oeste 0 1021 1.8 77
2020-01-23 11:00:00 10.9 6 Sudoeste 11 Sudoeste 0 1020.5 1.7 83
2020-01-23 10:00:00 8.8 8 Oeste 14 Sudoeste 0 1019.8 1.4 90
2020-01-23 09:00:00 6.1 8 Sudoeste 12 Sudoeste 0 1019.2 1.1 92
2020-01-23 08:00:00 5.7 7 Sudoeste 11 Sudoeste 0 1018.8 0.9 93
2020-01-23 07:00:00 5.7 6 Sudoeste 12 Sudoeste 0 1018.4 0.5 91
2020-01-23 06:00:00 5.7 8 Sudoeste 12 Sudoeste 0 1018.1 0.2 89
2020-01-23 05:00:00 6.7 6 Sudoeste 14 Oeste 0 1017.9 0.1 84
2020-01-23 04:00:00 8.2 8 Oeste 13 Oeste 0 1017.9 -0.1 82
2020-01-23 03:00:00 8.3 6 Oeste 17 Sudoeste 0 1017.9 0.3 83
2020-01-23 02:00:00 8.8 8 Sudoeste 13 Oeste 0 1017.8 0.9 82
2020-01-23 01:00:00 8.7 3 Sudoeste 11 Oeste 0 1018 1.8 82
2020-01-23 00:00:00 8.9 6 Sudoeste 10 Oeste 0 1017.6 1.3 84
2020-01-22 23:00:00 9.6 4 Sudoeste 14 Sudoeste 0 1016.9 1 81
2020-01-22 22:00:00 10.4 5 Sudoeste 19 Noroeste 0 1016.2 0.6 78
2020-01-22 21:00:00 10.8 5 Sudoeste 15 Noroeste 0 1016.3 1 82
2020-01-22 20:00:00 11.9 5 Oeste 27 Noroeste 0 1015.9 0.4 74
2020-01-22 19:00:00 12.1 17 Noroeste 30 Noroeste 0 1015.6 0 69
2020-01-22 18:00:00 12.7 8 Noroeste 34 Noroeste 0 1015.3 -0.6 75
2020-01-22 17:00:00 12.9 15 Noroeste 44 Noroeste 0 1015.5 -1.1 74
2020-01-22 16:00:00 14.2 13 Norte 26 Noroeste 0 1015.6 -1.6 79
2020-01-22 15:00:00 15.2 16 Norte 25 Norte 0 1015.9 -1.8 77
2020-01-22 14:00:00 15.3 9 Norte 23 Norte 0 1016.6 -1.2 76
2020-01-22 13:00:00 15.4 14 Norte 25 Norte 0 1017.2 -0.6 74
2020-01-22 12:00:00 14.9 14 Norte 22 Norte 0 1017.7 -0.1 78
2020-01-22 11:00:00 12.9 9 Noroeste 18 Norte 0 1017.8 0.2 93
2020-01-22 10:00:00 9.3 8 Sudoeste 14 Oeste 0 1017.8 0.4 95
2020-01-22 09:00:00 6.5 8 Oeste 12 Oeste 0 1017.8 0.3 95
2020-01-22 08:00:00 7.9 10 Oeste 14 Oeste 0.2 1017.6 0 95
2020-01-22 07:00:00 7.4 11 Oeste 15 Oeste 0 1017.4 -0.1 96
2020-01-22 06:00:00 6.9 8 Sudoeste 10 Oeste 0 1017.5 0 95
2020-01-22 05:00:00 6.6 8 Oeste 13 Sudoeste 0 1017.6 0.1 95
2020-01-22 04:00:00 6.4 7 Sudoeste 11 Sudoeste 0 1017.5 -0.1 95
2020-01-22 03:00:00 7 7 Oeste 11 Oeste 0 1017.5 0 95
2020-01-22 02:00:00 7.2 8 Sudoeste 10 Sudoeste 0 1017.5 0.5 94
2020-01-22 01:00:00 7.8 3 Oeste 8 Sudoeste 0 1017.6 1.2 94
2020-01-22 00:00:00 8.1 0 Calma 5 Sudoeste 0 1017.5 1.9 93
2020-01-21 23:00:00 8.9 3 Norte 4 Noroeste 0 1017 2.3 93
2020-01-21 22:00:00 9.3 4 Noroeste 5 Norte 0 1016.4 2.7 91
2020-01-21 21:00:00 9.8 0 Calma 6 Sur 0 1015.6 2.6 89
2020-01-21 20:00:00 10.7 0 Calma 6 Sur 0 1014.7 2.4 87
2020-01-21 19:00:00 11.7 4 Sudoeste 9 Sur 0 1013.7 2.3 81
2020-01-21 18:00:00 13.3 6 Sur 22 Sur 0 1013 2.1 72
2020-01-21 17:00:00 14.9 10 Sur 27 Sur 0 1012.3 1.1 67
2020-01-21 16:00:00 16.5 9 Sur 19 Sudeste 0 1011.4 -0.2 64
2020-01-21 15:00:00 17 10 Sur 27 Este 0 1010.9 -1.7 65
2020-01-21 14:00:00 14.7 14 Este 33 Este 0 1011.2 -1.2 74
2020-01-21 13:00:00 14.5 14 Este 34 Este 0 1011.6 -1 75
2020-01-21 12:00:00 14.2 16 Este 47 Este 0 1012.6 0.7 73
2020-01-21 11:00:00 13.8 22 Este 50 Este 0 1012.4 0.5 71
2020-01-21 10:00:00 12.4 19 Este 45 Este 1 1012.6 1.1 84
2020-01-21 09:00:00 12 24 Este 54 Este 2.2 1011.9 0.6 84
2020-01-21 08:00:00 14.2 14 Este 35 Este 0 1011.9 0.3 75
2020-01-21 07:00:00 13.9 12 Este 32 Este 0 1011.5 -1.8 73
2020-01-21 06:00:00 13.8 12 Este 32 Este 0 1011.3 -2.9 78
2020-01-21 05:00:00 12.1 17 Norte 37 Norte 0 1011.6 -3.7 84
2020-01-21 04:00:00 11.3 17 Nordeste 33 Nordeste 1.2 1013.3 -2.9 81
2020-01-21 03:00:00 12.8 18 Nordeste 51 Nordeste 0.4 1014.2 -2.8 83
2020-01-21 02:00:00 11.5 24 Norte 51 Noroeste 1.4 1015.3 -2.3 90
2020-01-21 01:00:00 10.1 21 Norte 40 Noroeste 0 1016.2 -0.9 89
2020-01-21 00:00:00 9.9 4 Norte 13 Noroeste 0 1017 0.3 90
2020-01-20 23:00:00 9.9 4 Oeste 26 Este 5.8 1017.6 0.8 89
2020-01-20 22:00:00 11.1 8 Sudeste 22 Este 2.4 1017.1 0.9 92
2020-01-20 21:00:00 10.8 0 Calma 18 Nordeste 2.8 1016.7 1.2 90
2020-01-20 20:00:00 11.4 7 Este 31 Este 1.2 1016.8 1.5 84
2020-01-20 19:00:00 12.2 12 Nordeste 31 Nordeste 0.2 1016.2 0.8 82
2020-01-20 18:00:00 12.7 12 Nordeste 22 Este 0 1015.5 0.2 83
2020-01-20 17:00:00 12.3 9 Nordeste 26 Este 0 1015.3 -0.4 78
2020-01-20 16:00:00 12.7 14 Nordeste 38 Nordeste 0 1015.4 -1.1 80
2020-01-20 15:00:00 12.6 13 Nordeste 44 Nordeste 1.2 1015.3 -1.6 88
2020-01-20 14:00:00 12 29 Nordeste 56 Nordeste 7.2 1015.7 -0.1 92
2020-01-20 13:00:00 11.7 32 Nordeste 63 Nordeste 1.6 1016.5 1.3 90
2020-01-20 12:00:00 12.8 21 Nordeste 45 Nordeste 0 1016.9 2.1 81
2020-01-20 11:00:00 11.7 32 Nordeste 72 Nordeste 2.4 1015.8 0.8 94
2020-01-20 10:00:00 10.7 51 Nordeste 94 Norte 0.6 1015.2 0.6 91
2020-01-20 09:00:00 10 46 Nordeste 91 Norte 0.8 1014.8 0.2 92
2020-01-20 08:00:00 9.4 42 Nordeste 84 Nordeste 3.6 1015 -0.8 95
2020-01-20 07:00:00 9.3 41 Nordeste 90 Nordeste 5.2 1014.6 -1.5 95
2020-01-20 06:00:00 9.2 41 Nordeste 90 Norte 5.6 1014.6 -1.9 96
2020-01-20 05:00:00 8.2 45 Norte 82 Norte 5.4 1015.8 -0.8 95
2020-01-20 04:00:00 8.5 42 Norte 78 Norte 5 1016.1 -0.8 95
2020-01-20 03:00:00 8.3 39 Norte 88 Nordeste 5.8 1016.5 -0.4 95
2020-01-20 02:00:00 8.7 47 Nordeste 83 Nordeste 3.8 1016.6 0.1 93
2020-01-20 01:00:00 8.8 42 Nordeste 86 Norte 3.8 1016.9 0.7 94
2020-01-20 00:00:00 8.5 41 Norte 83 Norte 3.8 1016.9 0.8 93
2020-01-19 23:00:00 9 47 Nordeste 85 Norte 3 1016.5 1 93
2020-01-19 22:00:00 9.1 49 Nordeste 93 Norte 2.2 1016.2 1 90
2020-01-19 21:00:00 9.4 44 Nordeste 86 Norte 1.4 1016.1 1.4 89
2020-01-19 20:00:00 9.7 40 Nordeste 87 Norte 0.8 1015.5 2.4 88
2020-01-19 19:00:00 9.4 42 Norte 86 Nordeste 1.8 1015.2 3 86
2020-01-19 18:00:00 10.2 43 Nordeste 90 Nordeste 1 1014.7 2.1 90
2020-01-19 17:00:00 12 46 Nordeste 82 Nordeste 0 1013.1 0.7 77
2020-01-19 16:00:00 12.3 46 Nordeste 75 Nordeste 0 1012.2 -1.3 78
2020-01-19 15:00:00 12.6 16 Noroeste 48 Oeste 0 1012.6 -2.1 69
2020-01-19 14:00:00 12.5 27 Oeste 50 Oeste 0 1012.4 -2.1 66
2020-01-19 13:00:00 12.5 27 Noroeste 53 Noroeste 0 1013.5 -0.5 71
2020-01-19 12:00:00 10.9 25 Noroeste 53 Norte 0 1014.7 0.8 83
2020-01-19 11:00:00 10.8 27 Norte 46 Norte 0.2 1014.5 1.1 86
2020-01-19 10:00:00 10.6 26 Norte 48 Norte 4.4 1014 0.6 90
2020-01-19 09:00:00 11.9 18 Norte 33 Norte 0 1013.9 0.5 82
2020-01-19 08:00:00 12.8 11 Noroeste 28 Noroeste 0 1013.4 -0.7 65
2020-01-19 07:00:00 13 17 Noroeste 36 Noroeste 0 1013.4 -2.4 64
2020-01-19 06:00:00 12.6 13 Oeste 28 Noroeste 0 1013.4 -2.9 59
2020-01-19 05:00:00 10.5 7 Sudoeste 17 Oeste 0 1014.1 -3 77
2020-01-19 04:00:00 10 9 Sudoeste 14 Sudoeste 0 1015.8 -2.7 77
2020-01-19 03:00:00 11.4 7 Oeste 14 Sudoeste 0 1016.3 -2.9 69
2020-01-19 02:00:00 12 4 Oeste 10 Oeste 0 1017.1 -2.5 69
2020-01-19 01:00:00 12.5 6 Oeste 13 Oeste 0 1018.5 -1.5 65
2020-01-19 00:00:00 12.1 5 Oeste 11 Noroeste 0 1019.2 -1.5 66
2020-01-18 23:00:00 12.1 4 Oeste 19 Sudoeste 0 1019.6 -1.9 64
2020-01-18 22:00:00 12.7 10 Oeste 21 Oeste 0 1020 -1.7 62
2020-01-18 21:00:00 12.7 9 Oeste 22 Oeste 0 1020.7 -1.8 66
2020-01-18 20:00:00 12.8 14 Sudoeste 29 Sudoeste 0 1021.5 -1.5 63
2020-01-18 19:00:00 13.4 12 Sudoeste 22 Sur 0 1021.7 -2.5 57
2020-01-18 18:00:00 15.1 9 Sudoeste 27 Sur 0 1022.5 -2.4 55
2020-01-18 17:00:00 17.1 13 Sudoeste 26 Sudoeste 0 1023 -3.5 49
2020-01-18 16:00:00 18.2 11 Sudoeste 28 Sudoeste 0 1024.2 -4 45
2020-01-18 15:00:00 16.2 8 Sudoeste 18 Sur 0 1024.9 -5.3 52
2020-01-18 14:00:00 16.3 7 Sur 16 Sur 0 1026.5 -3.7 63
2020-01-18 13:00:00 14.5 5 Oeste 10 Oeste 0 1028.2 -2.1 61
2020-01-18 12:00:00 12.2 7 Sudoeste 12 Sudoeste 0 1030.2 0.5 67
2020-01-18 11:00:00 10.9 6 Sudoeste 11 Oeste 0 1030.2 0.9 70
2020-01-18 10:00:00 10.1 9 Sudoeste 15 Sudoeste 0 1030.3 1.6 71
2020-01-18 09:00:00 8.2 8 Sudoeste 12 Sudoeste 0 1029.7 0.8 80
2020-01-18 08:00:00 7.8 9 Sudoeste 14 Sudoeste 0 1029.3 -0.5 81
2020-01-18 07:00:00 7.4 6 Oeste 11 Sudeste 0 1028.7 -1.4 80
2020-01-18 06:00:00 8.3 6 Oeste 12 Oeste 0 1028.9 -1.5 74
2020-01-18 05:00:00 8.2 5 Sudoeste 11 Noroeste 0 1029.8 -0.2 75
2020-01-18 04:00:00 10 5 Sudeste 11 Oeste 0 1030.1 -0.4 64
2020-01-18 03:00:00 11.2 8 Oeste 14 Oeste 0 1030.4 0.1 58
2020-01-18 02:00:00 12.1 9 Sudoeste 13 Oeste 0 1030 0.2 55
2020-01-18 01:00:00 12.1 6 Oeste 15 Oeste 0 1030.5 1.1 54
2020-01-18 00:00:00 12.8 6 Oeste 17 Noroeste 0 1030.3 1.3 52
2020-01-17 23:00:00 12.9 10 Oeste 30 Oeste 0 1029.8 1.1 51
2020-01-17 22:00:00 16.2 22 Noroeste 38 Noroeste 0 1029.4 1.2 39
2020-01-17 21:00:00 15.3 14 Oeste 36 Oeste 0 1029 1.6 42
2020-01-17 20:00:00 13.9 8 Sudoeste 24 Oeste 0 1028.7 1.7 49
2020-01-17 19:00:00 16.2 9 Oeste 34 Noroeste 0 1028.2 1.2 43
2020-01-17 18:00:00 16.5 3 Oeste 31 Noroeste 0 1027.4 0.3 44
2020-01-17 17:00:00 17.1 17 Noroeste 38 Noroeste 0 1027 -0.4 42
2020-01-17 16:00:00 19 10 Noroeste 36 Noroeste 0 1027 -1.1 37
2020-01-17 15:00:00 21.6 16 Oeste 29 Oeste 0 1027.1 -1.4 31
2020-01-17 14:00:00 21.1 18 Noroeste 29 Noroeste 0 1027.4 -0.9 31
2020-01-17 13:00:00 20.4 10 Oeste 32 Noroeste 0 1028.1 0.1 30
2020-01-17 12:00:00 19.3 15 Oeste 31 Noroeste 0 1028.5 1 32
2020-01-17 11:00:00 16.9 9 Oeste 17 Noroeste 0 1028.3 1.1 37
2020-01-17 10:00:00 9.6 8 Sudoeste 12 Oeste 0 1028 1.6 67
2020-01-17 09:00:00 6.4 10 Sudoeste 21 Oeste 0 1027.5 1.3 73
2020-01-17 08:00:00 4 9 Oeste 12 Oeste 0 1027.2 1 88
2020-01-17 07:00:00 2.9 8 Sudoeste 10 Sudoeste 0 1026.4 -0.1 90
2020-01-17 06:00:00 3.9 0 Calma 7 Sudoeste 0 1026.2 -0.3 87
2020-01-17 05:00:00 5.3 5 Sudoeste 13 Oeste 0 1026.2 -0.2 85
2020-01-17 04:00:00 6.7 9 Oeste 16 Oeste 0 1026.5 0 84
2020-01-17 03:00:00 6.7 5 Oeste 12 Oeste 0 1026.5 -0.1 79
2020-01-17 02:00:00 9.7 7 Oeste 15 Oeste 0 1026.4 0 74
2020-01-17 01:00:00 9.7 7 Oeste 12 Oeste 0 1026.5 0.2 76
2020-01-17 00:00:00 10.8 9 Oeste 17 Oeste 0 1026.6 0.3 74
2020-01-16 23:00:00 10.8 7 Oeste 17 Sudoeste 0 1026.4 0.2 74
2020-01-16 22:00:00 10.6 10 Sudoeste 15 Oeste 0 1026.3 0.5 79
2020-01-16 21:00:00 11.3 6 Sudoeste 16 Sudoeste 0 1026.3 0.7 81
2020-01-16 20:00:00 11.7 9 Sudoeste 16 Sudoeste 0 1026.2 0.9 79
2020-01-16 19:00:00 12.3 11 Sudoeste 18 Sudoeste 0 1025.8 0.5 74
2020-01-16 18:00:00 14.8 7 Sudoeste 17 Sudoeste 0 1025.6 0.1 61
2020-01-16 17:00:00 17.8 10 Sudoeste 20 Sudoeste 0 1025.3 -1.1 47
2020-01-16 16:00:00 19 8 Sudoeste 15 Sudoeste 0 1025.3 -2 45
2020-01-16 15:00:00 17.3 5 Este 13 Nordeste 0 1025.5 -2.3 53
2020-01-16 14:00:00 17.3 6 Este 12 Este 0 1026.4 -1.4 56
2020-01-16 13:00:00 17.3 5 Este 11 Este 0 1027.3 -0.3 56
2020-01-16 12:00:00 17 3 Este 10 Sudeste 0 1027.8 0.6 57
2020-01-16 11:00:00 14 4 Sudoeste 9 Sudoeste 0 1027.8 0.9 69
2020-01-16 10:00:00 8.8 7 Oeste 13 Sudoeste 0 1027.6 1.3 87
2020-01-16 09:00:00 5.6 8 Sudoeste 13 Sudoeste 0 1027.2 1.1 93
2020-01-16 08:00:00 4.2 6 Oeste 10 Sudoeste 0 1026.9 1 91
2020-01-16 07:00:00 5.2 5 Oeste 11 Sudoeste 0 1026.3 0.6 90
2020-01-16 06:00:00 4.8 5 Oeste 8 Oeste 0 1026.1 0.6 87
2020-01-16 05:00:00 6 8 Sudoeste 12 Sudoeste 0 1025.9 0.4 83
2020-01-16 04:00:00 8.1 7 Oeste 12 Oeste 0 1025.7 -0.1 76
2020-01-16 03:00:00 8.5 5 Oeste 13 Oeste 0 1025.5 -0.7 73
2020-01-16 02:00:00 8 4 Oeste 14 Oeste 0 1025.5 -0.7 75
2020-01-16 01:00:00 8.4 5 Oeste 14 Oeste 0 1025.8 0 74
2020-01-16 00:00:00 8.4 8 Oeste 13 Oeste 0 1026.2 0.4 75
2020-01-15 23:00:00 9 9 Oeste 13 Oeste 0 1026.2 0.6 74
2020-01-15 22:00:00 10.3 8 Noroeste 13 Oeste 0 1025.8 0.7 73
2020-01-15 21:00:00 11 7 Oeste 14 Oeste 0 1025.8 1.4 72
2020-01-15 20:00:00 11.5 4 Noroeste 12 Oeste 0 1025.6 1.5 73
2020-01-15 19:00:00 12.5 4 Sudoeste 16 Sudoeste 0 1025.1 1.2 68
2020-01-15 18:00:00 14.9 11 Sudoeste 20 Sudoeste 0 1024.4 0.6 59
2020-01-15 17:00:00 17 3 Oeste 19 Sudoeste 0 1024.1 -0.2 47
2020-01-15 16:00:00 17.8 7 Sudoeste 17 Sudoeste 0 1023.9 -0.7 40
2020-01-15 15:00:00 18.4 10 Sudoeste 19 Sudoeste 0 1023.8 -1.3 32
2020-01-15 14:00:00 19.8 3 Sudoeste 13 Sudeste 0 1024.3 -0.5 34
2020-01-15 13:00:00 18.5 6 Sudoeste 19 Oeste 0 1024.6 0.8 41
2020-01-15 12:00:00 16.5 10 Oeste 20 Sudoeste 0 1025.1 1.8 45
2020-01-15 11:00:00 13.3 7 Sudoeste 16 Sudoeste 0 1024.8 1.7 63
2020-01-15 10:00:00 8.5 10 Oeste 19 Sudoeste 0 1023.8 1.4 68
2020-01-15 09:00:00 5.3 13 Oeste 18 Oeste 0 1023.3 1.1 76
2020-01-15 08:00:00 3.9 7 Sudoeste 15 Sudoeste 0 1023.1 1.1 78
2020-01-15 07:00:00 3.2 7 Sudoeste 12 Sudoeste 0 1022.4 0.2 79
2020-01-15 06:00:00 4.3 7 Oeste 18 Oeste 0 1022.2 0.1 74
2020-01-15 05:00:00 3.8 10 Sudoeste 16 Sudoeste 0 1022 0 77
2020-01-15 04:00:00 4.1 9 Oeste 15 Oeste 0 1022.2 0 79
2020-01-15 03:00:00 3.4 10 Sudoeste 13 Sudoeste 0 1022.1 0.1 83
2020-01-15 02:00:00 3.4 9 Sudoeste 14 Oeste 0 1022 0.2 85
2020-01-15 01:00:00 5.3 9 Sudoeste 14 Oeste 0 1022.2 0.5 80
2020-01-15 00:00:00 7.4 8 Oeste 14 Oeste 0 1022 0.5 74
2020-01-14 23:00:00 7.4 11 Oeste 15 Oeste 0 1021.8 0.6 80
2020-01-14 22:00:00 7 10 Sudoeste 20 Sudoeste 0 1021.7 0.9 79
2020-01-14 21:00:00 10.8 10 Oeste 22 Sudoeste 0 1021.5 1.1 72
2020-01-14 20:00:00 10.8 9 Oeste 20 Oeste 0 1021.2 1 75
2020-01-14 19:00:00 11 6 Oeste 14 Oeste 0 1020.8 0.8 65
2020-01-14 18:00:00 13.5 8 Sudoeste 19 Sudoeste 0 1020.4 0.3 52
2020-01-14 17:00:00 16.5 7 Sur 15 Sur 0 1020.2 -0.5 45
2020-01-14 16:00:00 16.8 5 Este 13 Nordeste 0 1020 -1.5 44
2020-01-14 15:00:00 15.2 8 Nordeste 16 Este 0 1020.1 -2.2 48
2020-01-14 14:00:00 15.5 8 Este 15 Nordeste 0 1020.7 -1.8 50
2020-01-14 13:00:00 15.5 8 Este 12 Nordeste 0 1021.5 -0.3 52
2020-01-14 12:00:00 15.5 3 Nordeste 7 Oeste 0 1022.3 0.9 47
2020-01-14 11:00:00 11.4 7 Sudoeste 12 Sudoeste 0 1022.5 1.3 49
2020-01-14 10:00:00 5.3 9 Sudoeste 14 Sudoeste 0 1021.8 1 72
2020-01-14 09:00:00 1.2 11 Sudoeste 14 Sudoeste 0 1021.4 0.8 83
2020-01-14 08:00:00 0.7 10 Sudoeste 14 Sudoeste 0 1021.2 0.7 84
2020-01-14 07:00:00 1.7 11 Sudoeste 14 Sudoeste 0 1020.8 0.3 81
2020-01-14 06:00:00 1.8 11 Sudoeste 15 Sudoeste 0 1020.6 -0.3 83
2020-01-14 05:00:00 2.2 9 Sudoeste 15 Sudoeste 0 1020.5 -0.5 82
2020-01-14 04:00:00 3 10 Oeste 16 Oeste 0 1020.5 -0.8 79
2020-01-14 03:00:00 2.8 9 Sudoeste 14 Oeste 0 1020.9 -0.5 82
2020-01-14 02:00:00 4.2 10 Oeste 14 Oeste 0 1021 -0.6 84
2020-01-14 01:00:00 5 7 Oeste 10 Oeste 0 1021.3 -0.5 85
2020-01-14 00:00:00 7.3 0 Calma 14 Oeste 0 1021.4 -0.6 76
2020-01-13 23:00:00 8.4 5 Oeste 13 Oeste 0 1021.6 -0.3 79
2020-01-13 22:00:00 9.4 7 Oeste 16 Oeste 0 1021.8 0 78
2020-01-13 21:00:00 10 8 Oeste 17 Sudoeste 0 1022 0.5 79
2020-01-13 20:00:00 11.2 12 Oeste 22 Sudoeste 0 1021.9 0.7 77
2020-01-13 19:00:00 11.7 6 Oeste 19 Sudoeste 0 1021.8 0.3 74
2020-01-13 18:00:00 12.9 12 Sudoeste 26 Sudoeste 0 1021.5 -0.4 65
2020-01-13 17:00:00 15 15 Sudoeste 28 Sudoeste 0 1021.2 -1.7 56
2020-01-13 16:00:00 15.4 14 Sur 29 Sudoeste 0 1021.5 -2.8 50
2020-01-13 15:00:00 15.7 17 Sudoeste 30 Sudoeste 0 1021.9 -3.6 47
2020-01-13 14:00:00 15.9 16 Sur 31 Sudoeste 0 1022.9 -2.8 40
2020-01-13 13:00:00 15.2 15 Sudoeste 26 Sudoeste 0 1024.3 -1.4 40
2020-01-13 12:00:00 13.5 15 Sudoeste 26 Sudoeste 0 1025.5 -0.3 47
2020-01-13 11:00:00 10.9 9 Oeste 15 Oeste 0 1025.7 -0.2 61
2020-01-13 10:00:00 3.5 4 Sudoeste 12 Sudoeste 0 1025.7 -0.2 80
2020-01-13 09:00:00 -0.3 8 Sudoeste 13 Sudoeste 0 1025.8 -0.1 85
2020-01-13 08:00:00 0.8 8 Sudoeste 13 Oeste 0 1025.9 -0.6 78
2020-01-13 07:00:00 1.1 10 Sudoeste 16 Sudoeste 0 1025.9 -1.3 79
2020-01-13 06:00:00 0.7 11 Sudoeste 14 Sudoeste 0 1025.9 -1.3 83
2020-01-13 05:00:00 1.6 10 Sudoeste 15 Oeste 0 1026.5 -1.2 83
2020-01-13 04:00:00 2.6 9 Oeste 14 Oeste 0 1027.2 -1.3 82
2020-01-13 03:00:00 2.6 8 Oeste 12 Sudoeste 0 1027.2 -2 86
2020-01-13 02:00:00 3.2 9 Sudoeste 14 Oeste 0 1027.7 -1.7 89
2020-01-13 01:00:00 3.8 12 Oeste 16 Oeste 0 1028.5 -0.9 87
2020-01-13 00:00:00 4.7 9 Oeste 14 Oeste 0 1029.2 -0.1 88
2020-01-12 23:00:00 4.5 9 Oeste 13 Oeste 0 1029.4 0.1 87
2020-01-12 22:00:00 4.6 10 Sudoeste 13 Sudoeste 0 1029.4 0.7 87
2020-01-12 21:00:00 5.1 9 Sudoeste 15 Oeste 0 1029.3 1.2 86
2020-01-12 20:00:00 6.1 8 Sudoeste 11 Sudoeste 0 1029.3 1.8 80
2020-01-12 19:00:00 8.7 2 Oeste 10 Norte 0 1028.7 1.5 70
2020-01-12 18:00:00 12.2 6 Este 22 Noroeste 0 1028.1 0.7 57
2020-01-12 17:00:00 13.6 12 Noroeste 29 Norte 0 1027.5 -0.6 46
2020-01-12 16:00:00 14.5 15 Noroeste 27 Norte 0 1027.2 -1.9 43
2020-01-12 15:00:00 15.1 11 Norte 27 Norte 0 1027.4 -2.3 42
2020-01-12 14:00:00 14.2 13 Norte 27 Norte 0 1028.1 -1.5 45
2020-01-12 13:00:00 14 14 Norte 24 Norte 0 1029.1 0 53
2020-01-12 12:00:00 13.7 6 Noroeste 14 Noroeste 0 1029.7 0.8 53
2020-01-12 11:00:00 9.9 7 Sudoeste 10 Sudoeste 0 1029.6 1 72
2020-01-12 10:00:00 4.2 9 Sudoeste 13 Sudoeste 0 1029.1 0.7 90
2020-01-12 09:00:00 1.5 9 Sudoeste 13 Oeste 0 1028.9 0.6 91
2020-01-12 08:00:00 1.6 8 Sudoeste 14 Sudoeste 0 1028.6 0.2 90
2020-01-12 07:00:00 1.8 8 Oeste 13 Oeste 0 1028.4 -0.4 90
2020-01-12 06:00:00 2 10 Sudoeste 12 Sudoeste 0 1028.3 -0.6 88
2020-01-12 05:00:00 2.9 10 Sudoeste 13 Sudoeste 0 1028.4 -0.6 86
2020-01-12 04:00:00 3.7 11 Sudoeste 15 Oeste 0 1028.8 -0.6 87
2020-01-12 03:00:00 3.4 8 Sudoeste 11 Sudoeste 0 1028.9 -0.7 91
2020-01-12 02:00:00 4.1 9 Sudoeste 14 Oeste 0 1029 -0.6 90
2020-01-12 01:00:00 4.6 10 Oeste 14 Oeste 0 1029.4 0 91
2020-01-12 00:00:00 4.7 9 Sudoeste 13 Sudoeste 0 1029.6 0.3 92
2020-01-11 23:00:00 4.9 9 Oeste 12 Oeste 0 1029.6 0.4 91
2020-01-11 22:00:00 5.6 9 Oeste 12 Oeste 0 1029.4 0.5 90
2020-01-11 21:00:00 6 10 Sudoeste 12 Sudoeste 0 1029.3 0.6 89
2020-01-11 20:00:00 7 8 Sudoeste 10 Oeste 0 1029.2 0.5 86
2020-01-11 19:00:00 8.8 0 Calma 11 Noroeste 0 1028.9 0.3 76
2020-01-11 18:00:00 12.1 8 Noroeste 18 Noroeste 0 1028.7 0 66
2020-01-11 17:00:00 13 11 Norte 24 Norte 0 1028.7 -0.6 62
2020-01-11 16:00:00 14.6 15 Norte 31 Norte 0 1028.6 -1.4 57
2020-01-11 15:00:00 14.5 19 Norte 32 Norte 0 1028.7 -1.8 56
2020-01-11 14:00:00 14.6 17 Norte 32 Oeste 0 1029.3 -0.7 56
2020-01-11 13:00:00 13 16 Noroeste 33 Noroeste 0 1030 0.5 59
2020-01-11 12:00:00 12.5 18 Noroeste 32 Noroeste 0 1030.5 1.5 60
2020-01-11 11:00:00 11.8 16 Noroeste 29 Noroeste 0 1030 1.4 64
2020-01-11 10:00:00 11.1 13 Noroeste 24 Noroeste 0 1029.5 1.3 66
2020-01-11 09:00:00 10.7 15 Noroeste 33 Noroeste 0 1029 1.1 69
2020-01-11 08:00:00 11.1 17 Noroeste 33 Noroeste 0 1028.6 1.3 67
2020-01-11 07:00:00 10.9 18 Noroeste 33 Noroeste 0 1028.2 1.2 65
2020-01-11 06:00:00 11 14 Noroeste 29 Noroeste 0 1027.9 1.1 64
2020-01-11 05:00:00 11.1 14 Noroeste 27 Noroeste 0 1027.3 0.3 70
2020-01-11 04:00:00 12.1 13 Norte 24 Norte 0 1027 0.1 66
2020-01-11 03:00:00 12.6 18 Norte 29 Norte 0 1026.8 -0.3 63
2020-01-11 02:00:00 13.1 19 Norte 36 Nordeste 0 1027 0.3 62
2020-01-11 01:00:00 13 17 Norte 37 Nordeste 0 1026.9 0.6 64
2020-01-11 00:00:00 12.6 18 Norte 44 Norte 0 1027.1 1 65
2020-01-10 23:00:00 12.4 21 Norte 41 Norte 0 1026.7 1.1 69
2020-01-10 22:00:00 11.8 23 Norte 47 Norte 0.6 1026.3 1.9 77
2020-01-10 21:00:00 10.8 19 Norte 42 Norte 5.2 1026.1 2.7 91
2020-01-10 20:00:00 10.6 31 Norte 55 Norte 5 1025.6 2.2 92
2020-01-10 19:00:00 11.2 26 Norte 66 Norte 1.8 1024.4 1 90
2020-01-10 18:00:00 12.1 31 Norte 50 Nordeste 0.2 1023.4 0.2 81
2020-01-10 17:00:00 12.1 23 Norte 51 Noroeste 0 1023.4 0.1 72
2020-01-10 16:00:00 14.6 19 Norte 47 Norte 0 1023.4 -0.3 50
2020-01-10 15:00:00 14.9 16 Nordeste 37 Nordeste 0 1023.2 -0.9 56
2020-01-10 14:00:00 14.2 22 Norte 40 Noroeste 0 1023.3 -0.8 60
2020-01-10 13:00:00 14.2 17 Norte 33 Noroeste 0 1023.7 0.2 63
2020-01-10 12:00:00 14.2 14 Norte 31 Norte 0 1024.1 1.1 65
2020-01-10 11:00:00 12.7 14 Noroeste 27 Noroeste 0 1024.1 1.9 72
2020-01-10 10:00:00 12 17 Noroeste 32 Noroeste 0 1023.5 1.8 82
2020-01-10 09:00:00 9.6 17 Norte 30 Noroeste 0 1023 1.4 95
2020-01-10 08:00:00 5.3 4 Sudoeste 13 Oeste 0 1022.2 0.4 89
2020-01-10 07:00:00 6.1 10 Oeste 14 Sudoeste 0 1021.7 -0.7 86
2020-01-10 06:00:00 6.6 9 Oeste 11 Oeste 0 1021.6 -0.7 85
2020-01-10 05:00:00 9.3 7 Oeste 14 Oeste 0 1021.8 -0.7 80
2020-01-10 04:00:00 10 7 Oeste 11 Oeste 0 1022.4 -0.6 78
2020-01-10 03:00:00 10.6 6 Oeste 17 Oeste 0 1022.3 -1.2 78
2020-01-10 02:00:00 10.1 9 Oeste 14 Sudoeste 0 1022.5 -0.8 80
2020-01-10 01:00:00 10.3 10 Sudoeste 23 Oeste 0 1023 -1.3 78
2020-01-10 00:00:00 11.5 12 Oeste 28 Oeste 0 1023.5 -1.6 77
2020-01-09 23:00:00 11.7 9 Sudoeste 19 Sudoeste 0 1023.3 -1.7 81
2020-01-09 22:00:00 10.5 6 Oeste 15 Sudoeste 0 1024.3 0 88
2020-01-09 21:00:00 9.2 5 Sudoeste 10 Oeste 0 1025.1 0.5 88
2020-01-09 20:00:00 10.4 6 Oeste 12 Oeste 0 1025 0.2 89
2020-01-09 19:00:00 10.1 5 Sudoeste 8 Sur 0 1024.3 -0.7 82
2020-01-09 18:00:00 13.5 4 Sudeste 14 Sudeste 0 1024.6 -0.6 72
2020-01-09 17:00:00 14.7 6 Sudeste 14 Este 0 1024.8 -1 67
2020-01-09 16:00:00 14.6 8 Este 17 Nordeste 0 1025 -1.8 69
2020-01-09 15:00:00 15.6 8 Este 14 Este 0 1025.2 -2.6 62
2020-01-09 14:00:00 16.9 4 Este 14 Nordeste 0 1025.8 -2 55
2020-01-09 13:00:00 15.4 8 Este 15 Este 0 1026.8 -0.8 61
2020-01-09 12:00:00 16.1 2 Sur 10 Oeste 0 1027.8 0.4 59
2020-01-09 11:00:00 13 6 Oeste 11 Oeste 0 1027.8 0.4 72
2020-01-09 10:00:00 7.5 6 Oeste 10 Oeste 0 1027.6 0.1 93
2020-01-09 09:00:00 4.9 7 Sudoeste 10 Oeste 0 1027.4 -0.1 90
2020-01-09 08:00:00 6.5 8 Sudoeste 12 Sudoeste 0 1027.4 -0.4 91
2020-01-09 07:00:00 6.5 7 Sudoeste 13 Sudoeste 0 1027.5 -0.9 90
2020-01-09 06:00:00 7.7 9 Sudoeste 12 Sudoeste 0 1027.5 -1.1 88
2020-01-09 05:00:00 7.5 9 Sudoeste 11 Sudoeste 0 1027.8 -0.9 88
2020-01-09 04:00:00 8.1 4 Oeste 12 Oeste 0 1028.4 -0.5 86
2020-01-09 03:00:00 8.3 6 Oeste 12 Sudoeste 0 1028.6 -0.7 88
2020-01-09 02:00:00 9 7 Sudoeste 11 Oeste 0 1028.7 -0.7 88
2020-01-09 01:00:00 9.8 6 Sudoeste 11 Noroeste 0 1028.9 -0.7 89
2020-01-09 00:00:00 10.6 8 Noroeste 13 Noroeste 0 1029.3 -0.2 88
2020-01-08 23:00:00 9.4 4 Noroeste 9 Noroeste 0 1029.4 -0.1 88
2020-01-08 22:00:00 10.9 4 Oeste 14 Noroeste 0 1029.6 0.1 82
2020-01-08 21:00:00 12.4 9 Norte 18 Nordeste 0 1029.5 0.4 78
2020-01-08 20:00:00 12.2 9 Norte 19 Nordeste 0 1029.5 0.9 80
2020-01-08 19:00:00 12.8 14 Nordeste 22 Norte 0 1029.5 1.4 80
2020-01-08 18:00:00 13.4 13 Norte 28 Norte 0 1029.1 0.7 75
2020-01-08 17:00:00 14.7 15 Norte 35 Noroeste 0 1028.6 -0.3 74
2020-01-08 16:00:00 15.4 20 Noroeste 32 Noroeste 0 1028.1 -1.3 67
2020-01-08 15:00:00 15.9 18 Norte 31 Norte 0 1028.4 -1.6 60
2020-01-08 14:00:00 15.7 19 Noroeste 33 Noroeste 0 1028.9 -0.6 61
2020-01-08 13:00:00 13.8 14 Noroeste 25 Noroeste 0 1029.4 0.3 69
2020-01-08 12:00:00 15.7 6 Norte 21 Noroeste 0 1030 1.7 65
2020-01-08 11:00:00 11.5 4 Oeste 12 Oeste 0 1029.5 1.9 80
2020-01-08 10:00:00 5.4 5 Sudoeste 11 Sudoeste 0 1029.1 2.4 92
2020-01-08 09:00:00 2.8 10 Sudoeste 12 Sudoeste 0 1028.3 1.5 91
2020-01-08 08:00:00 2.9 10 Sudoeste 13 Sudoeste 0 1027.6 0.7 91
2020-01-08 07:00:00 3.2 10 Oeste 14 Oeste 0 1026.7 -0.2 91
2020-01-08 06:00:00 3.1 8 Sudoeste 14 Sudoeste 0 1026.8 -0.3 91
2020-01-08 05:00:00 3.1 10 Sudoeste 14 Oeste 0 1026.9 -0.5 92
2020-01-08 04:00:00 3.6 10 Oeste 13 Oeste 0 1026.9 -0.8 94
2020-01-08 03:00:00 3 7 Sudoeste 11 Oeste 0 1027.1 -0.8 91
2020-01-08 02:00:00 4.1 8 Sudoeste 11 Sudoeste 0 1027.4 -0.6 90
2020-01-08 01:00:00 5.4 8 Oeste 12 Oeste 0 1027.7 -0.6 90
2020-01-08 00:00:00 5.3 6 Oeste 10 Oeste 0 1027.9 -0.3 88
2020-01-07 23:00:00 8 6 Oeste 12 Noroeste 0 1028 -0.1 89
2020-01-07 22:00:00 7.4 6 Oeste 13 Oeste 0 1028.3 0.4 86
2020-01-07 21:00:00 9.2 5 Oeste 12 Sudoeste 0 1028.2 0.7 84
2020-01-07 20:00:00 10.5 6 Sudoeste 11 Sur 0 1028.1 0.3 81
2020-01-07 19:00:00 11.2 5 Sudoeste 19 Sudoeste 0 1027.9 0.1 80
2020-01-07 18:00:00 13 10 Sudoeste 21 Sudoeste 0 1027.5 -0.6 76
2020-01-07 17:00:00 15.5 10 Sur 23 Sur 0 1027.8 -1.3 65
2020-01-07 16:00:00 16.4 11 Sudoeste 21 Sudoeste 0 1027.8 -2.3 59
2020-01-07 15:00:00 17.1 7 Sudoeste 16 Nordeste 0 1028.1 -2.5 55
2020-01-07 14:00:00 15.2 8 Nordeste 14 Nordeste 0 1029.1 -1.9 63
2020-01-07 13:00:00 15.2 7 Nordeste 13 Nordeste 0 1030.1 -0.6 61
2020-01-07 12:00:00 15 4 Sudoeste 10 Sudoeste 0 1030.6 0.5 66
2020-01-07 11:00:00 11.7 7 Oeste 15 Oeste 0 1031 1.3 82
2020-01-07 10:00:00 7.4 8 Sudoeste 13 Oeste 0 1030.7 1 96
2020-01-07 09:00:00 5.4 9 Sudoeste 13 Oeste 0 1030.1 0.4 95
2020-01-07 08:00:00 5.5 5 Oeste 11 Oeste 0 1029.7 0.1 95
2020-01-07 07:00:00 4.8 8 Sudoeste 14 Oeste 0 1029.7 0 95
2020-01-07 06:00:00 3.7 8 Sudoeste 12 Sudoeste 0 1029.7 0.1 95
2020-01-07 05:00:00 3.9 10 Sudoeste 13 Sudoeste 0 1029.6 0.2 95
2020-01-07 04:00:00 4.6 9 Sudoeste 13 Sudoeste 0 1029.7 0.3 94
2020-01-07 03:00:00 4.2 8 Sudoeste 11 Oeste 0 1029.6 0.3 94
2020-01-07 02:00:00 4.5 9 Sudoeste 12 Oeste 0 1029.4 0.3 94
2020-01-07 01:00:00 4.6 8 Sudoeste 12 Oeste 0 1029.4 0.8 94
2020-01-07 00:00:00 5.3 9 Oeste 11 Oeste 0 1029.3 1.1 94
2020-01-06 23:00:00 5.8 9 Sudoeste 11 Sudoeste 0 1029.1 1.3 93
2020-01-06 22:00:00 6.3 7 Oeste 10 Oeste 0 1028.6 1.1 91
2020-01-06 21:00:00 7.3 7 Oeste 9 Oeste 0 1028.2 0.9 88
2020-01-06 20:00:00 9.2 0 Calma 3 Oeste 0 1027.8 0.6 79
2020-01-06 19:00:00 12.1 0 Calma 4 Sudeste 0 1027.5 0.5 76
2020-01-06 18:00:00 13.4 3 Sur 11 Este 0 1027.3 0.4 71
2020-01-06 17:00:00 14.9 5 Este 13 Este 0 1027.2 -0.3 64
2020-01-06 16:00:00 15.1 7 Este 14 Este 0 1027 -1.3 60
2020-01-06 15:00:00 15.8 7 Nordeste 18 Nordeste 0 1026.9 -2.1 59
2020-01-06 14:00:00 16.2 11 Norte 22 Norte 0 1027.5 -1.6 57
2020-01-06 13:00:00 15.9 10 Norte 19 Norte 0 1028.3 -0.7 61
2020-01-06 12:00:00 15 11 Norte 21 Noroeste 0 1029 0.6 63
2020-01-06 11:00:00 13.8 13 Noroeste 24 Norte 0 1029.1 1.2 70
2020-01-06 10:00:00 12.1 14 Noroeste 23 Noroeste 0 1029 1.4 79